sensor_id;sensor_type;location;lat;lon;timestamp;pressure;altitude;pressure_sealevel;temperature;humidity
36192;BME280;22233;42.708;23.360;2023-04-20T00:00:04;95056.50;;;11.55;65.02
36192;BME280;22233;42.708;23.360;2023-04-20T00:02:38;95066.66;;;11.46;65.89
36192;BME280;22233;42.708;23.360;2023-04-20T00:05:08;95047.78;;;11.49;66.03
36192;BME280;22233;42.708;23.360;2023-04-20T00:07:34;95054.69;;;11.38;65.55
36192;BME280;22233;42.708;23.360;2023-04-20T00:10:00;95060.84;;;11.17;66.19
36192;BME280;22233;42.708;23.360;2023-04-20T00:12:26;95059.34;;;11.29;66.11
36192;BME280;22233;42.708;23.360;2023-04-20T00:14:51;95047.72;;;11.19;67.03
36192;BME280;22233;42.708;23.360;2023-04-20T00:17:17;95047.63;;;11.46;66.11
36192;BME280;22233;42.708;23.360;2023-04-20T00:19:43;95048.63;;;11.32;66.29
36192;BME280;22233;42.708;23.360;2023-04-20T00:22:08;95054.31;;;11.57;66.02
36192;BME280;22233;42.708;23.360;2023-04-20T00:24:34;95047.16;;;11.44;67.71
36192;BME280;22233;42.708;23.360;2023-04-20T00:27:00;95054.06;;;11.41;66.89
36192;BME280;22233;42.708;23.360;2023-04-20T00:29:25;95029.88;;;11.39;66.81
36192;BME280;22233;42.708;23.360;2023-04-20T00:31:51;95044.31;;;11.31;66.33
36192;BME280;22233;42.708;23.360;2023-04-20T00:34:16;95043.19;;;10.85;68.89
36192;BME280;22233;42.708;23.360;2023-04-20T00:36:42;95030.09;;;10.87;67.99
36192;BME280;22233;42.708;23.360;2023-04-20T00:39:07;95042.22;;;10.90;69.05
36192;BME280;22233;42.708;23.360;2023-04-20T00:41:33;95030.44;;;10.68;69.32
36192;BME280;22233;42.708;23.360;2023-04-20T00:43:58;95032.41;;;11.06;67.70
36192;BME280;22233;42.708;23.360;2023-04-20T00:46:23;95032.16;;;10.82;68.11
36192;BME280;22233;42.708;23.360;2023-04-20T00:48:49;95043.69;;;10.70;68.97
36192;BME280;22233;42.708;23.360;2023-04-20T00:51:19;95042.75;;;10.66;66.99
36192;BME280;22233;42.708;23.360;2023-04-20T00:53:45;95041.63;;;10.58;67.85
36192;BME280;22233;42.708;23.360;2023-04-20T00:56:12;95039.06;;;10.62;66.39
36192;BME280;22233;42.708;23.360;2023-04-20T00:58:38;95037.81;;;10.42;68.91
36192;BME280;22233;42.708;23.360;2023-04-20T01:01:04;95036.56;;;10.39;69.35
36192;BME280;22233;42.708;23.360;2023-04-20T01:03:29;95038.94;;;10.32;68.97
36192;BME280;22233;42.708;23.360;2023-04-20T01:05:55;95039.72;;;10.50;68.46
36192;BME280;22233;42.708;23.360;2023-04-20T01:08:25;95037.81;;;10.42;69.02
36192;BME280;22233;42.708;23.360;2023-04-20T01:10:51;95036.53;;;10.22;69.18
36192;BME280;22233;42.708;23.360;2023-04-20T01:13:16;95043.88;;;10.12;69.83
36192;BME280;22233;42.708;23.360;2023-04-20T01:15:41;95041.31;;;10.25;69.22
36192;BME280;22233;42.708;23.360;2023-04-20T01:18:07;95040.19;;;10.26;69.27
36192;BME280;22233;42.708;23.360;2023-04-20T01:20:33;95041.31;;;10.16;70.41
36192;BME280;22233;42.708;23.360;2023-04-20T01:22:59;95036.34;;;10.18;70.66
36192;BME280;22233;42.708;23.360;2023-04-20T01:25:24;95024.06;;;10.12;70.19
36192;BME280;22233;42.708;23.360;2023-04-20T01:27:50;95037.31;;;10.48;69.21
36192;BME280;22233;42.708;23.360;2023-04-20T01:30:15;95029.03;;;10.18;69.76
36192;BME280;22233;42.708;23.360;2023-04-20T01:32:42;95038.78;;;10.37;69.37
36192;BME280;22233;42.708;23.360;2023-04-20T01:35:08;95031.59;;;10.58;67.61
36192;BME280;22233;42.708;23.360;2023-04-20T01:37:34;95024.09;;;10.47;68.19
36192;BME280;22233;42.708;23.360;2023-04-20T01:39:59;95024.72;;;10.61;67.71
36192;BME280;22233;42.708;23.360;2023-04-20T01:42:25;95031.25;;;10.60;67.85
36192;BME280;22233;42.708;23.360;2023-04-20T01:44:50;95013.84;;;10.44;66.97
36192;BME280;22233;42.708;23.360;2023-04-20T01:47:17;95025.72;;;10.30;68.96
36192;BME280;22233;42.708;23.360;2023-04-20T01:49:43;95018.16;;;10.53;68.07
36192;BME280;22233;42.708;23.360;2023-04-20T01:52:08;94996.47;;;10.45;67.48
36192;BME280;22233;42.708;23.360;2023-04-20T01:54:34;95012.13;;;10.39;68.49
36192;BME280;22233;42.708;23.360;2023-04-20T01:57:00;95014.03;;;10.47;68.40
36192;BME280;22233;42.708;23.360;2023-04-20T01:59:26;94982.72;;;10.41;66.58
36192;BME280;22233;42.708;23.360;2023-04-20T02:01:51;95009.38;;;10.48;67.90
36192;BME280;22233;42.708;23.360;2023-04-20T02:04:17;95004.41;;;10.67;66.92
36192;BME280;22233;42.708;23.360;2023-04-20T02:06:43;95015.44;;;10.53;67.52
36192;BME280;22233;42.708;23.360;2023-04-20T02:09:08;95011.16;;;10.44;68.29
36192;BME280;22233;42.708;23.360;2023-04-20T02:11:34;95018.19;;;10.45;67.94
36192;BME280;22233;42.708;23.360;2023-04-20T02:14:00;95014.31;;;10.63;67.66
36192;BME280;22233;42.708;23.360;2023-04-20T02:16:25;95004.75;;;10.57;68.01
36192;BME280;22233;42.708;23.360;2023-04-20T02:18:53;95014.19;;;10.25;67.61
36192;BME280;22233;42.708;23.360;2023-04-20T02:21:19;95023.28;;;10.55;67.63
36192;BME280;22233;42.708;23.360;2023-04-20T02:23:44;95007.78;;;10.38;66.48
36192;BME280;22233;42.708;23.360;2023-04-20T02:26:09;95010.78;;;10.71;66.68
36192;BME280;22233;42.708;23.360;2023-04-20T02:28:35;95016.53;;;10.78;67.09
36192;BME280;22233;42.708;23.360;2023-04-20T02:31:01;95014.91;;;10.77;66.51
36192;BME280;22233;42.708;23.360;2023-04-20T02:33:27;95012.38;;;10.64;67.42
36192;BME280;22233;42.708;23.360;2023-04-20T02:35:52;95001.50;;;10.72;66.23
36192;BME280;22233;42.708;23.360;2023-04-20T02:38:17;95019.25;;;10.70;66.81
36192;BME280;22233;42.708;23.360;2023-04-20T02:40:43;95007.88;;;10.76;65.86
36192;BME280;22233;42.708;23.360;2023-04-20T02:43:08;95015.25;;;10.67;67.13
36192;BME280;22233;42.708;23.360;2023-04-20T02:45:34;95021.78;;;10.84;66.38
36192;BME280;22233;42.708;23.360;2023-04-20T02:47:59;95006.84;;;10.43;67.26
36192;BME280;22233;42.708;23.360;2023-04-20T02:50:25;95022.94;;;10.65;66.34
36192;BME280;22233;42.708;23.360;2023-04-20T02:52:50;95012.69;;;10.62;66.37
36192;BME280;22233;42.708;23.360;2023-04-20T02:55:16;95014.00;;;10.56;67.22
36192;BME280;22233;42.708;23.360;2023-04-20T02:57:41;95004.59;;;10.45;67.97
36192;BME280;22233;42.708;23.360;2023-04-20T03:00:07;95009.69;;;10.46;67.77
36192;BME280;22233;42.708;23.360;2023-04-20T03:02:33;95007.31;;;10.45;67.79
36192;BME280;22233;42.708;23.360;2023-04-20T03:05:01;95019.88;;;10.75;66.88
36192;BME280;22233;42.708;23.360;2023-04-20T03:07:27;95004.41;;;10.67;65.94
36192;BME280;22233;42.708;23.360;2023-04-20T03:09:53;95011.69;;;10.84;65.81
36192;BME280;22233;42.708;23.360;2023-04-20T03:12:18;95000.88;;;10.75;66.79
36192;BME280;22233;42.708;23.360;2023-04-20T03:14:44;95012.38;;;11.19;64.60
36192;BME280;22233;42.708;23.360;2023-04-20T03:17:09;95022.41;;;10.89;65.55
36192;BME280;22233;42.708;23.360;2023-04-20T03:19:35;95017.16;;;10.75;66.10
36192;BME280;22233;42.708;23.360;2023-04-20T03:22:01;95013.84;;;10.44;67.22
36192;BME280;22233;42.708;23.360;2023-04-20T03:24:26;95007.44;;;10.48;66.71
36192;BME280;22233;42.708;23.360;2023-04-20T03:26:52;95025.78;;;10.77;66.87
36192;BME280;22233;42.708;23.360;2023-04-20T03:29:17;95013.19;;;10.64;67.68
36192;BME280;22233;42.708;23.360;2023-04-20T03:31:42;95022.31;;;10.51;67.91
36192;BME280;22233;42.708;23.360;2023-04-20T03:34:08;95020.50;;;10.81;66.92
36192;BME280;22233;42.708;23.360;2023-04-20T03:36:34;95021.34;;;10.73;67.28
36192;BME280;22233;42.708;23.360;2023-04-20T03:38:59;95012.84;;;10.83;66.60
36192;BME280;22233;42.708;23.360;2023-04-20T03:41:25;95012.06;;;10.65;66.58
36192;BME280;22233;42.708;23.360;2023-04-20T03:43:50;95001.72;;;10.41;66.44
36192;BME280;22233;42.708;23.360;2023-04-20T03:46:16;95021.66;;;10.54;66.91
36192;BME280;22233;42.708;23.360;2023-04-20T03:48:41;95004.91;;;10.52;67.12
36192;BME280;22233;42.708;23.360;2023-04-20T03:51:07;95010.50;;;10.47;67.63
36192;BME280;22233;42.708;23.360;2023-04-20T03:53:32;95028.56;;;10.51;67.60
36192;BME280;22233;42.708;23.360;2023-04-20T03:55:58;95016.22;;;10.71;66.90
36192;BME280;22233;42.708;23.360;2023-04-20T03:58:23;95012.06;;;10.65;66.65
36192;BME280;22233;42.708;23.360;2023-04-20T04:00:49;95034.41;;;10.79;66.76
36192;BME280;22233;42.708;23.360;2023-04-20T04:03:14;95019.38;;;10.91;65.85
36192;BME280;22233;42.708;23.360;2023-04-20T04:05:40;95013.38;;;11.15;65.68
36192;BME280;22233;42.708;23.360;2023-04-20T04:08:06;95027.56;;;11.20;66.43
36192;BME280;22233;42.708;23.360;2023-04-20T04:10:31;95013.13;;;11.29;66.74
36192;BME280;22233;42.708;23.360;2023-04-20T04:12:57;95030.84;;;11.44;66.86
36192;BME280;22233;42.708;23.360;2023-04-20T04:15:22;95035.56;;;11.55;64.97
36192;BME280;22233;42.708;23.360;2023-04-20T04:17:48;95028.44;;;11.42;64.37
36192;BME280;22233;42.708;23.360;2023-04-20T04:20:13;95033.41;;;11.40;64.58
36192;BME280;22233;42.708;23.360;2023-04-20T04:22:40;95041.97;;;11.21;65.27
36192;BME280;22233;42.708;23.360;2023-04-20T04:25:06;95038.72;;;10.89;65.24
36192;BME280;22233;42.708;23.360;2023-04-20T04:27:32;95014.06;;;10.94;65.33
36192;BME280;22233;42.708;23.360;2023-04-20T04:30:02;95025.41;;;11.05;64.82
36192;BME280;22233;42.708;23.360;2023-04-20T04:32:29;95034.19;;;11.02;65.34
36192;BME280;22233;42.708;23.360;2023-04-20T04:34:54;95036.16;;;10.93;65.70
36192;BME280;22233;42.708;23.360;2023-04-20T04:37:20;95037.53;;;11.08;65.25
36192;BME280;22233;42.708;23.360;2023-04-20T04:39:46;95036.91;;;11.02;65.09
36192;BME280;22233;42.708;23.360;2023-04-20T04:42:11;95044.19;;;11.28;64.45
36192;BME280;22233;42.708;23.360;2023-04-20T04:44:36;95037.47;;;11.25;63.92
36192;BME280;22233;42.708;23.360;2023-04-20T04:47:04;95043.84;;;10.73;66.35
36192;BME280;22233;42.708;23.360;2023-04-20T04:49:30;95051.69;;;10.66;66.08
36192;BME280;22233;42.708;23.360;2023-04-20T04:51:56;95051.88;;;10.61;66.95
36192;BME280;22233;42.708;23.360;2023-04-20T04:54:21;95029.72;;;10.97;65.21
36192;BME280;22233;42.708;23.360;2023-04-20T04:56:47;95043.38;;;11.27;64.60
36192;BME280;22233;42.708;23.360;2023-04-20T04:59:12;95050.56;;;11.32;63.31
36192;BME280;22233;42.708;23.360;2023-04-20T05:01:37;95036.84;;;11.19;64.13
36192;BME280;22233;42.708;23.360;2023-04-20T05:04:03;95042.06;;;11.33;63.65
36192;BME280;22233;42.708;23.360;2023-04-20T05:06:28;95047.03;;;10.84;64.98
36192;BME280;22233;42.708;23.360;2023-04-20T05:08:54;95058.66;;;11.02;64.67
36192;BME280;22233;42.708;23.360;2023-04-20T05:11:19;95053.81;;;11.16;64.38
36192;BME280;22233;42.708;23.360;2023-04-20T05:13:44;95056.03;;;11.23;64.87
36192;BME280;22233;42.708;23.360;2023-04-20T05:16:10;95057.16;;;11.22;64.94
36192;BME280;22233;42.708;23.360;2023-04-20T05:18:35;95043.22;;;11.24;64.69
36192;BME280;22233;42.708;23.360;2023-04-20T05:21:01;95054.84;;;10.86;65.16
36192;BME280;22233;42.708;23.360;2023-04-20T05:23:26;95064.09;;;11.49;63.70
36192;BME280;22233;42.708;23.360;2023-04-20T05:25:51;95066.63;;;11.07;65.50
36192;BME280;22233;42.708;23.360;2023-04-20T05:28:17;95064.63;;;11.34;65.08
36192;BME280;22233;42.708;23.360;2023-04-20T05:30:43;95060.59;;;11.40;63.81
36192;BME280;22233;42.708;23.360;2023-04-20T05:33:08;95057.50;;;11.50;63.89
36192;BME280;22233;42.708;23.360;2023-04-20T05:35:34;95058.81;;;11.44;64.12
36192;BME280;22233;42.708;23.360;2023-04-20T05:38:00;95062.25;;;11.62;63.61
36192;BME280;22233;42.708;23.360;2023-04-20T05:40:28;95068.47;;;11.71;64.49
36192;BME280;22233;42.708;23.360;2023-04-20T05:42:53;95066.53;;;11.72;64.52
36192;BME280;22233;42.708;23.360;2023-04-20T05:45:18;95077.50;;;11.84;63.42
36192;BME280;22233;42.708;23.360;2023-04-20T05:47:56;95071.19;;;12.01;66.43
36192;BME280;22233;42.708;23.360;2023-04-20T05:50:23;95080.56;;;12.12;63.59
36192;BME280;22233;42.708;23.360;2023-04-20T05:52:49;95059.78;;;12.29;65.02
36192;BME280;22233;42.708;23.360;2023-04-20T05:55:15;95074.03;;;12.05;63.25
36192;BME280;22233;42.708;23.360;2023-04-20T05:57:40;95078.81;;;11.78;63.48
36192;BME280;22233;42.708;23.360;2023-04-20T06:00:11;95071.78;;;11.77;64.27
36192;BME280;22233;42.708;23.360;2023-04-20T06:02:37;95073.75;;;11.68;63.60
36192;BME280;22233;42.708;23.360;2023-04-20T06:05:03;95074.13;;;11.57;65.05
36192;BME280;22233;42.708;23.360;2023-04-20T06:07:28;95074.13;;;11.57;64.67
36192;BME280;22233;42.708;23.360;2023-04-20T06:09:53;95079.06;;;11.26;65.80
36192;BME280;22233;42.708;23.360;2023-04-20T06:12:19;95081.81;;;11.55;65.90
36192;BME280;22233;42.708;23.360;2023-04-20T06:14:45;95077.59;;;11.28;65.58
36192;BME280;22233;42.708;23.360;2023-04-20T06:17:10;95070.63;;;11.48;66.55
36192;BME280;22233;42.708;23.360;2023-04-20T06:19:36;95062.22;;;11.41;66.49
36192;BME280;22233;42.708;23.360;2023-04-20T06:22:07;95067.75;;;11.53;65.35
36192;BME280;22233;42.708;23.360;2023-04-20T06:24:34;95077.13;;;11.26;66.00
36192;BME280;22233;42.708;23.360;2023-04-20T06:27:00;95069.06;;;11.38;65.62
36192;BME280;22233;42.708;23.360;2023-04-20T06:29:26;95068.59;;;11.45;65.26
36192;BME280;22233;42.708;23.360;2023-04-20T06:31:52;95077.16;;;11.56;65.94
36192;BME280;22233;42.708;23.360;2023-04-20T06:34:17;95077.94;;;11.65;66.49
36192;BME280;22233;42.708;23.360;2023-04-20T06:36:43;95076.88;;;11.49;66.25
36192;BME280;22233;42.708;23.360;2023-04-20T06:39:09;95079.09;;;11.55;66.44
36192;BME280;22233;42.708;23.360;2023-04-20T06:41:36;95068.25;;;11.47;67.18
36192;BME280;22233;42.708;23.360;2023-04-20T06:44:02;95078.47;;;11.50;68.08
36192;BME280;22233;42.708;23.360;2023-04-20T06:46:27;95086.22;;;11.39;68.33
36192;BME280;22233;42.708;23.360;2023-04-20T06:48:53;95068.88;;;11.05;69.41
36192;BME280;22233;42.708;23.360;2023-04-20T06:51:18;95092.59;;;11.34;68.38
36192;BME280;22233;42.708;23.360;2023-04-20T06:53:43;95085.84;;;11.49;67.57
36192;BME280;22233;42.708;23.360;2023-04-20T06:56:09;95096.06;;;11.52;66.74
36192;BME280;22233;42.708;23.360;2023-04-20T06:58:35;95082.94;;;11.07;68.88
36192;BME280;22233;42.708;23.360;2023-04-20T07:01:01;95074.44;;;11.17;67.29
36192;BME280;22233;42.708;23.360;2023-04-20T07:03:26;95102.69;;;11.34;68.70
36192;BME280;22233;42.708;23.360;2023-04-20T07:05:52;95102.69;;;11.72;76.00
36192;BME280;22233;42.708;23.360;2023-04-20T07:08:17;95107.78;;;11.91;66.85
36192;BME280;22233;42.708;23.360;2023-04-20T07:10:42;95104.41;;;11.47;67.95
36192;BME280;22233;42.708;23.360;2023-04-20T07:13:08;95097.34;;;11.93;66.94
36192;BME280;22233;42.708;23.360;2023-04-20T07:15:33;95098.97;;;11.77;67.11
36192;BME280;22233;42.708;23.360;2023-04-20T07:17:59;95110.31;;;11.49;68.57
36192;BME280;22233;42.708;23.360;2023-04-20T07:20:24;95107.91;;;11.86;67.27
36192;BME280;22233;42.708;23.360;2023-04-20T07:22:49;95112.41;;;11.82;66.74
36192;BME280;22233;42.708;23.360;2023-04-20T07:25:15;95089.56;;;11.74;66.65
36192;BME280;22233;42.708;23.360;2023-04-20T07:27:42;95099.56;;;11.53;67.67
36192;BME280;22233;42.708;23.360;2023-04-20T07:30:09;95097.34;;;11.85;66.82
36192;BME280;22233;42.708;23.360;2023-04-20T07:32:35;95106.25;;;12.03;66.74
36192;BME280;22233;42.708;23.360;2023-04-20T07:35:01;95109.06;;;11.85;66.74
36192;BME280;22233;42.708;23.360;2023-04-20T07:37:26;95109.44;;;12.05;65.90
36192;BME280;22233;42.708;23.360;2023-04-20T07:39:52;95106.69;;;11.75;66.12
36192;BME280;22233;42.708;23.360;2023-04-20T07:42:18;95098.63;;;11.57;66.58
36192;BME280;22233;42.708;23.360;2023-04-20T07:44:43;95101.97;;;11.93;66.49
36192;BME280;22233;42.708;23.360;2023-04-20T07:47:09;95105.63;;;12.27;65.59
36192;BME280;22233;42.708;23.360;2023-04-20T07:49:35;95115.13;;;12.42;65.44
36192;BME280;22233;42.708;23.360;2023-04-20T07:52:01;95105.59;;;12.06;64.70
36192;BME280;22233;42.708;23.360;2023-04-20T07:54:27;95112.53;;;12.24;64.68
36192;BME280;22233;42.708;23.360;2023-04-20T07:56:53;95094.31;;;12.37;63.69
36192;BME280;22233;42.708;23.360;2023-04-20T07:59:19;95091.66;;;12.28;62.56
36192;BME280;22233;42.708;23.360;2023-04-20T08:01:45;95100.31;;;12.51;62.35
36192;BME280;22233;42.708;23.360;2023-04-20T08:04:11;95094.13;;;12.42;62.90
36192;BME280;22233;42.708;23.360;2023-04-20T08:06:36;95099.19;;;12.52;63.31
36192;BME280;22233;42.708;23.360;2023-04-20T08:09:01;95071.47;;;12.50;61.83
36192;BME280;22233;42.708;23.360;2023-04-20T08:11:28;95106.22;;;12.53;63.14
36192;BME280;22233;42.708;23.360;2023-04-20T08:13:53;95108.16;;;12.53;63.64
36192;BME280;22233;42.708;23.360;2023-04-20T08:16:18;95099.38;;;12.47;63.04
36192;BME280;22233;42.708;23.360;2023-04-20T08:18:44;95093.78;;;12.23;62.12
36192;BME280;22233;42.708;23.360;2023-04-20T08:21:10;95119.50;;;12.34;62.26
36192;BME280;22233;42.708;23.360;2023-04-20T08:23:36;95106.63;;;12.64;61.50
36192;BME280;22233;42.708;23.360;2023-04-20T08:26:02;95108.69;;;12.46;62.83
36192;BME280;22233;42.708;23.360;2023-04-20T08:28:28;95099.25;;;12.65;63.08
36192;BME280;22233;42.708;23.360;2023-04-20T08:30:53;95108.66;;;12.88;61.51
36192;BME280;22233;42.708;23.360;2023-04-20T08:33:19;95117.88;;;12.42;62.52
36192;BME280;22233;42.708;23.360;2023-04-20T08:35:44;95099.94;;;12.62;62.53
36192;BME280;22233;42.708;23.360;2023-04-20T08:38:10;95122.09;;;12.72;62.22
36192;BME280;22233;42.708;23.360;2023-04-20T08:40:36;95110.00;;;12.82;61.13
36192;BME280;22233;42.708;23.360;2023-04-20T08:43:02;95096.13;;;12.54;61.86
36192;BME280;22233;42.708;23.360;2023-04-20T08:45:29;95116.00;;;12.54;61.73
36192;BME280;22233;42.708;23.360;2023-04-20T08:47:57;95103.06;;;12.85;61.67
36192;BME280;22233;42.708;23.360;2023-04-20T08:50:22;95094.16;;;12.75;61.56
36192;BME280;22233;42.708;23.360;2023-04-20T08:52:48;95100.84;;;12.45;61.98
36192;BME280;22233;42.708;23.360;2023-04-20T08:55:18;95103.75;;;12.61;62.56
36192;BME280;22233;42.708;23.360;2023-04-20T08:57:43;95101.59;;;12.54;62.19
36192;BME280;22233;42.708;23.360;2023-04-20T09:00:09;95091.13;;;12.77;60.47
36192;BME280;22233;42.708;23.360;2023-04-20T09:02:36;95093.25;;;12.71;60.54
36192;BME280;22233;42.708;23.360;2023-04-20T09:05:12;95084.38;;;12.62;62.20
36192;BME280;22233;42.708;23.360;2023-04-20T09:07:37;95104.88;;;12.81;60.57
36192;BME280;22233;42.708;23.360;2023-04-20T09:10:03;95108.53;;;12.85;60.67
36192;BME280;22233;42.708;23.360;2023-04-20T09:12:39;95111.34;;;12.76;60.86
36192;BME280;22233;42.708;23.360;2023-04-20T09:15:06;95098.28;;;12.82;60.95
36192;BME280;22233;42.708;23.360;2023-04-20T09:17:34;95098.41;;;13.06;60.83
36192;BME280;22233;42.708;23.360;2023-04-20T09:20:00;95102.56;;;13.04;61.58
36192;BME280;22233;42.708;23.360;2023-04-20T09:22:30;95085.00;;;13.26;60.48
36192;BME280;22233;42.708;23.360;2023-04-20T09:24:56;95083.75;;;13.23;60.09
36192;BME280;22233;42.708;23.360;2023-04-20T09:27:21;95089.56;;;13.22;60.19
36192;BME280;22233;42.708;23.360;2023-04-20T09:30:00;95089.41;;;13.39;59.27
36192;BME280;22233;42.708;23.360;2023-04-20T09:32:28;95091.34;;;13.51;59.01
36192;BME280;22233;42.708;23.360;2023-04-20T09:34:54;95086.22;;;13.49;59.37
36192;BME280;22233;42.708;23.360;2023-04-20T09:37:20;95082.72;;;13.49;60.33
36192;BME280;22233;42.708;23.360;2023-04-20T09:39:47;95082.06;;;13.76;58.35
36192;BME280;22233;42.708;23.360;2023-04-20T09:42:14;95090.47;;;13.71;58.68
36192;BME280;22233;42.708;23.360;2023-04-20T09:44:40;95093.53;;;13.82;58.54
36192;BME280;22233;42.708;23.360;2023-04-20T09:47:06;95066.00;;;13.87;59.04
36192;BME280;22233;42.708;23.360;2023-04-20T09:49:33;95083.34;;;14.32;57.60
36192;BME280;22233;42.708;23.360;2023-04-20T09:52:02;95077.69;;;14.12;58.20
36192;BME280;22233;42.708;23.360;2023-04-20T09:54:29;95077.84;;;14.56;56.18
36192;BME280;22233;42.708;23.360;2023-04-20T09:56:58;95068.19;;;14.34;56.83
36192;BME280;22233;42.708;23.360;2023-04-20T09:59:25;95055.44;;;14.51;56.93
36192;BME280;22233;42.708;23.360;2023-04-20T10:01:51;95065.34;;;14.43;56.77
36192;BME280;22233;42.708;23.360;2023-04-20T10:04:16;95060.59;;;14.28;58.96
36192;BME280;22233;42.708;23.360;2023-04-20T10:06:52;95051.53;;;14.64;56.76
36192;BME280;22233;42.708;23.360;2023-04-20T10:09:24;95051.78;;;14.47;56.56
36192;BME280;22233;42.708;23.360;2023-04-20T10:11:51;95054.66;;;14.78;55.92
36192;BME280;22233;42.708;23.360;2023-04-20T10:16:42;95050.19;;;14.86;55.05
36192;BME280;22233;42.708;23.360;2023-04-20T10:19:08;95048.16;;;15.27;55.48
36192;BME280;22233;42.708;23.360;2023-04-20T10:21:44;95053.09;;;15.85;53.80
36192;BME280;22233;42.708;23.360;2023-04-20T10:24:10;95053.72;;;15.78;53.19
36192;BME280;22233;42.708;23.360;2023-04-20T10:29:02;95049.91;;;15.99;52.45
36192;BME280;22233;42.708;23.360;2023-04-20T10:31:40;95039.25;;;15.78;52.93
36192;BME280;22233;42.708;23.360;2023-04-20T10:34:07;95041.69;;;15.67;52.89
36192;BME280;22233;42.708;23.360;2023-04-20T10:36:37;95044.59;;;15.43;53.63
36192;BME280;22233;42.708;23.360;2023-04-20T10:39:18;95048.06;;;15.55;52.76
36192;BME280;22233;42.708;23.360;2023-04-20T10:41:55;95038.16;;;15.83;52.22
36192;BME280;22233;42.708;23.360;2023-04-20T10:44:23;95035.69;;;15.62;52.18
36192;BME280;22233;42.708;23.360;2023-04-20T10:46:52;95035.84;;;16.01;52.01
36192;BME280;22233;42.708;23.360;2023-04-20T10:49:18;95037.81;;;15.52;52.58
36192;BME280;22233;42.708;23.360;2023-04-20T10:51:50;95018.19;;;15.18;53.94
36192;BME280;22233;42.708;23.360;2023-04-20T10:54:16;95045.47;;;15.31;53.29
36192;BME280;22233;42.708;23.360;2023-04-20T10:56:44;95045.47;;;15.15;53.84
36192;BME280;22233;42.708;23.360;2023-04-20T10:59:28;95045.16;;;15.80;51.88
36192;BME280;22233;42.708;23.360;2023-04-20T11:01:53;95038.97;;;15.83;51.70
36192;BME280;22233;42.708;23.360;2023-04-20T11:04:31;95019.97;;;15.74;52.03
36192;BME280;22233;42.708;23.360;2023-04-20T11:07:07;95022.91;;;16.17;51.36
36192;BME280;22233;42.708;23.360;2023-04-20T11:09:33;95032.34;;;16.20;51.83
36192;BME280;22233;42.708;23.360;2023-04-20T11:12:03;95036.81;;;16.28;49.44
36192;BME280;22233;42.708;23.360;2023-04-20T11:14:31;95026.94;;;15.72;50.27
36192;BME280;22233;42.708;23.360;2023-04-20T11:16:56;95016.59;;;15.65;51.23
36192;BME280;22233;42.708;23.360;2023-04-20T11:19:28;95011.63;;;16.03;50.55
36192;BME280;22233;42.708;23.360;2023-04-20T11:21:55;95022.97;;;16.21;49.38
36192;BME280;22233;42.708;23.360;2023-04-20T11:24:26;95022.53;;;16.18;48.89
36192;BME280;22233;42.708;23.360;2023-04-20T11:26:52;95020.31;;;16.24;50.25
36192;BME280;22233;42.708;23.360;2023-04-20T11:29:32;95012.41;;;16.38;49.51
36192;BME280;22233;42.708;23.360;2023-04-20T11:32:04;95012.25;;;16.31;50.40
36192;BME280;22233;42.708;23.360;2023-04-20T11:34:30;95025.66;;;16.36;49.73
36192;BME280;22233;42.708;23.360;2023-04-20T11:37:02;95006.03;;;16.54;49.03
36192;BME280;22233;42.708;23.360;2023-04-20T11:39:29;95000.53;;;16.15;49.21
36192;BME280;22233;42.708;23.360;2023-04-20T11:41:54;95013.63;;;16.41;48.90
36192;BME280;22233;42.708;23.360;2023-04-20T11:44:24;95022.38;;;16.66;47.90
36192;BME280;22233;42.708;23.360;2023-04-20T11:46:51;94983.75;;;16.55;48.22
36192;BME280;22233;42.708;23.360;2023-04-20T11:49:26;95003.00;;;16.78;47.43
36192;BME280;22233;42.708;23.360;2023-04-20T11:51:51;95006.78;;;16.70;48.13
36192;BME280;22233;42.708;23.360;2023-04-20T11:54:17;95009.94;;;16.33;49.86
36192;BME280;22233;42.708;23.360;2023-04-20T11:56:43;95009.22;;;16.75;49.22
36192;BME280;22233;42.708;23.360;2023-04-20T11:59:09;95014.00;;;16.59;49.25
36192;BME280;22233;42.708;23.360;2023-04-20T12:01:35;94995.88;;;16.54;49.41
36192;BME280;22233;42.708;23.360;2023-04-20T12:04:04;94996.09;;;16.65;49.32
36192;BME280;22233;42.708;23.360;2023-04-20T12:06:30;95005.41;;;16.41;50.01
36192;BME280;22233;42.708;23.360;2023-04-20T12:08:59;95008.34;;;16.32;50.23
36192;BME280;22233;42.708;23.360;2023-04-20T12:11:25;95016.94;;;16.31;50.94
36192;BME280;22233;42.708;23.360;2023-04-20T12:13:50;95006.97;;;15.87;52.10
36192;BME280;22233;42.708;23.360;2023-04-20T12:16:17;95022.97;;;15.85;52.24
36192;BME280;22233;42.708;23.360;2023-04-20T12:18:43;95004.59;;;15.70;53.47
36192;BME280;22233;42.708;23.360;2023-04-20T12:21:08;95002.13;;;15.17;54.32
36192;BME280;22233;42.708;23.360;2023-04-20T12:23:34;95019.47;;;14.77;55.21
36192;BME280;22233;42.708;23.360;2023-04-20T12:26:01;95013.59;;;14.63;54.15
36192;BME280;22233;42.708;23.360;2023-04-20T12:28:28;95011.47;;;14.44;55.75
36192;BME280;22233;42.708;23.360;2023-04-20T12:30:53;95018.06;;;14.43;55.56
36192;BME280;22233;42.708;23.360;2023-04-20T12:33:19;95000.25;;;14.33;55.97
36192;BME280;22233;42.708;23.360;2023-04-20T12:35:44;95012.06;;;14.77;55.31
36192;BME280;22233;42.708;23.360;2023-04-20T12:38:10;95008.53;;;14.93;54.89
36192;BME280;22233;42.708;23.360;2023-04-20T12:40:35;94992.59;;;15.27;53.88
36192;BME280;22233;42.708;23.360;2023-04-20T12:43:01;94993.66;;;15.54;53.86
36192;BME280;22233;42.708;23.360;2023-04-20T12:45:26;94996.81;;;15.72;53.51
36192;BME280;22233;42.708;23.360;2023-04-20T12:47:52;95007.69;;;15.84;51.76
36192;BME280;22233;42.708;23.360;2023-04-20T12:50:17;94998.06;;;15.90;50.32